createdAt,value
2022-11-17T00:01:57.937Z,11.77
2022-11-17T00:04:30.964Z,11.77
2022-11-17T00:06:58.090Z,11.87
2022-11-17T00:09:25.417Z,11.86
2022-11-17T00:12:11.127Z,11.81
2022-11-17T00:14:40.559Z,11.88
2022-11-17T00:17:11.439Z,11.89
2022-11-17T00:19:57.037Z,11.96
2022-11-17T00:22:24.587Z,11.89
2022-11-17T00:24:51.579Z,11.96
2022-11-17T00:27:18.437Z,11.93
2022-11-17T00:29:45.241Z,12.02
2022-11-17T00:32:33.790Z,12.00
2022-11-17T00:35:00.964Z,12.03
2022-11-17T00:37:30.200Z,11.96
2022-11-17T00:40:00.728Z,11.99
2022-11-17T00:42:28.108Z,11.93
2022-11-17T00:44:54.849Z,11.92
2022-11-17T00:47:23.315Z,11.95
2022-11-17T00:49:50.269Z,11.95
2022-11-17T00:52:17.080Z,11.96
2022-11-17T00:54:43.862Z,11.89
2022-11-17T00:57:10.731Z,11.95
2022-11-17T00:59:37.651Z,11.91
2022-11-17T01:02:04.478Z,11.97
2022-11-17T01:04:32.698Z,12.03
2022-11-17T01:06:59.592Z,11.99
2022-11-17T01:09:26.415Z,11.90
2022-11-17T01:11:53.951Z,11.94
2022-11-17T01:14:23.179Z,12.00
2022-11-17T01:16:50.624Z,12.07
2022-11-17T01:19:18.238Z,12.03
2022-11-17T01:21:47.174Z,12.00
2022-11-17T01:24:16.353Z,12.10
2022-11-17T01:26:45.093Z,11.96
2022-11-17T01:29:13.228Z,11.94
2022-11-17T01:31:43.481Z,11.98
2022-11-17T01:34:11.202Z,11.99
2022-11-17T01:36:59.919Z,12.01
2022-11-17T01:39:29.857Z,11.95
2022-11-17T01:41:57.245Z,11.91
2022-11-17T01:44:56.878Z,11.88
2022-11-17T01:47:30.504Z,11.86
2022-11-17T01:50:01.396Z,11.76
2022-11-17T01:52:30.530Z,11.77
2022-11-17T01:55:00.091Z,11.66
2022-11-17T01:57:33.109Z,11.69
2022-11-17T02:00:02.800Z,11.67
2022-11-17T02:02:29.826Z,11.60
2022-11-17T02:05:06.967Z,11.63
2022-11-17T02:07:37.880Z,11.55
2022-11-17T02:10:07.597Z,11.42
2022-11-17T02:12:36.891Z,11.45
2022-11-17T02:15:05.548Z,11.42
2022-11-17T02:17:36.505Z,11.46
2022-11-17T02:20:10.668Z,11.35
2022-11-17T02:23:12.208Z,11.49
2022-11-17T02:26:06.040Z,11.50
2022-11-17T02:28:37.662Z,11.45
2022-11-17T02:31:19.814Z,11.44
2022-11-17T02:33:55.881Z,11.45
2022-11-17T02:36:31.400Z,11.42
2022-11-17T02:39:04.839Z,11.48
2022-11-17T02:41:37.941Z,11.44
2022-11-17T02:44:10.791Z,11.44
2022-11-17T02:46:44.220Z,11.43
2022-11-17T02:49:17.540Z,11.53
2022-11-17T02:51:46.060Z,11.47
2022-11-17T02:54:13.427Z,11.44
2022-11-17T02:56:41.887Z,11.37
2022-11-17T02:59:13.859Z,11.38
2022-11-17T03:02:03.432Z,11.38
2022-11-17T03:04:37.815Z,11.51
2022-11-17T03:07:19.183Z,11.48
2022-11-17T03:09:53.108Z,11.52
2022-11-17T03:12:23.366Z,11.50
2022-11-17T03:15:01.844Z,11.46
2022-11-17T03:17:35.078Z,11.36
2022-11-17T03:20:08.508Z,11.42
2022-11-17T03:22:43.488Z,11.37
2022-11-17T03:25:15.252Z,11.45
2022-11-17T03:27:47.341Z,11.47
2022-11-17T03:30:17.506Z,11.48
2022-11-17T03:32:50.387Z,11.54
2022-11-17T03:35:20.621Z,11.48
2022-11-17T03:37:52.049Z,11.49
2022-11-17T03:40:22.712Z,11.44
2022-11-17T03:42:54.016Z,11.46
2022-11-17T03:45:25.390Z,11.45
2022-11-17T03:47:57.815Z,11.48
2022-11-17T03:50:31.284Z,11.38
2022-11-17T03:52:58.096Z,11.39
2022-11-17T03:55:30.933Z,11.40
2022-11-17T03:58:04.542Z,11.26
2022-11-17T04:00:34.414Z,11.19
2022-11-17T04:03:01.349Z,11.16
2022-11-17T04:05:28.259Z,11.06
2022-11-17T04:07:55.113Z,10.89
2022-11-17T04:10:25.686Z,10.96
2022-11-17T04:13:12.411Z,10.89
2022-11-17T04:15:59.645Z,10.83
2022-11-17T04:18:27.170Z,10.91
2022-11-17T04:20:55.748Z,10.87
2022-11-17T04:23:23.998Z,10.77
2022-11-17T04:26:11.237Z,10.84
2022-11-17T04:28:40.944Z,10.76
2022-11-17T04:31:14.737Z,10.68
2022-11-17T04:33:43.085Z,10.67
2022-11-17T04:36:11.467Z,10.72
2022-11-17T04:38:41.834Z,10.69
2022-11-17T04:41:28.710Z,10.73
2022-11-17T04:43:56.294Z,10.60
2022-11-17T04:46:25.594Z,10.58
2022-11-17T04:48:53.875Z,10.63
2022-11-17T04:51:21.441Z,10.58
2022-11-17T04:53:48.656Z,10.58
2022-11-17T04:56:16.190Z,10.65
2022-11-17T04:58:43.245Z,10.57
2022-11-17T05:01:13.183Z,10.57
2022-11-17T05:03:43.268Z,10.55
2022-11-17T05:06:11.031Z,10.60
2022-11-17T05:08:39.382Z,10.54
2022-11-17T05:11:26.476Z,10.57
2022-11-17T05:13:53.616Z,10.59
2022-11-17T05:16:40.102Z,10.55
2022-11-17T05:19:10.754Z,10.57
2022-11-17T05:21:37.664Z,10.43
2022-11-17T05:24:05.097Z,10.52
2022-11-17T05:26:33.545Z,10.55
2022-11-17T05:29:03.151Z,10.60
2022-11-17T05:31:30.416Z,10.43
2022-11-17T05:33:57.949Z,10.54
2022-11-17T05:36:27.449Z,10.53
2022-11-17T05:38:55.154Z,10.42
2022-11-17T05:41:22.839Z,10.48
2022-11-17T05:43:50.495Z,10.48
2022-11-17T05:46:18.290Z,10.41
2022-11-17T05:48:45.774Z,10.35
2022-11-17T05:51:12.920Z,10.46
2022-11-17T05:53:41.125Z,10.44
2022-11-17T05:56:16.948Z,10.43
2022-11-17T05:58:47.948Z,10.49
2022-11-17T06:01:16.319Z,10.41
2022-11-17T06:03:49.147Z,10.49
2022-11-17T06:06:16.172Z,10.52
2022-11-17T06:08:44.337Z,10.53
2022-11-17T06:11:11.117Z,10.45
2022-11-17T06:13:38.478Z,10.35
2022-11-17T06:16:10.055Z,10.35
2022-11-17T06:18:39.780Z,10.30
2022-11-17T06:21:09.694Z,10.36
2022-11-17T06:23:38.201Z,10.29
2022-11-17T06:31:46.989Z,10.34
2022-11-17T06:37:12.313Z,10.31
2022-11-17T06:39:39.223Z,10.20
2022-11-17T06:45:32.743Z,10.33
2022-11-17T06:57:27.971Z,10.23
2022-11-17T06:59:56.205Z,10.32
2022-11-17T07:05:21.120Z,10.31
2022-11-17T07:07:48.326Z,10.34
2022-11-17T07:10:15.289Z,10.33
2022-11-17T07:12:42.188Z,10.23
2022-11-17T07:15:10.918Z,10.16
2022-11-17T07:17:37.733Z,10.21
2022-11-17T07:20:06.451Z,10.23
2022-11-17T07:28:18.869Z,10.32
2022-11-17T07:31:13.299Z,10.27
2022-11-17T07:33:40.400Z,10.29
2022-11-17T07:36:09.861Z,10.26
2022-11-17T07:38:43.354Z,10.34
2022-11-17T07:44:12.825Z,10.24
2022-11-17T07:46:41.090Z,10.30
2022-11-17T07:49:07.947Z,10.21
2022-11-17T07:51:34.818Z,10.30
2022-11-17T07:54:01.888Z,10.24
2022-11-17T07:56:28.684Z,10.21
2022-11-17T07:58:55.556Z,10.29
2022-11-17T08:01:22.326Z,10.23
2022-11-17T08:03:50.679Z,10.20
2022-11-17T08:06:17.598Z,10.02
2022-11-17T08:08:44.525Z,10.15
2022-11-17T08:11:13.044Z,10.19
2022-11-17T08:13:41.031Z,10.20
2022-11-17T08:16:09.365Z,10.16
2022-11-17T08:18:37.274Z,10.27
2022-11-17T08:21:07.938Z,10.26
2022-11-17T08:23:35.295Z,10.30
2022-11-17T08:26:03.545Z,10.29
2022-11-17T08:28:30.510Z,10.24
2022-11-17T08:30:57.377Z,10.20
2022-11-17T08:33:24.273Z,10.28
2022-11-17T08:35:51.455Z,10.21
2022-11-17T08:38:19.788Z,10.19
2022-11-17T08:40:47.785Z,10.28
2022-11-17T08:43:14.564Z,10.18
2022-11-17T08:45:42.578Z,10.33
2022-11-17T08:48:09.354Z,10.30
2022-11-17T08:50:36.308Z,10.38
2022-11-17T08:53:03.200Z,10.45
2022-11-17T08:55:32.388Z,10.44
2022-11-17T08:58:01.478Z,10.45
2022-11-17T09:00:28.257Z,10.61
2022-11-17T09:02:55.074Z,10.49
2022-11-17T09:05:21.976Z,10.46
2022-11-17T09:07:49.215Z,10.58
2022-11-17T09:10:16.182Z,10.58
2022-11-17T09:12:44.421Z,10.64
2022-11-17T09:15:11.485Z,10.73
2022-11-17T09:17:38.261Z,10.76
2022-11-17T09:20:06.023Z,10.79
2022-11-17T09:22:32.815Z,10.86
2022-11-17T09:24:59.590Z,10.96
2022-11-17T09:27:26.376Z,10.92
2022-11-17T09:29:54.631Z,11.04
2022-11-17T09:32:21.471Z,11.04
2022-11-17T09:34:48.381Z,11.00
2022-11-17T09:37:15.211Z,11.17
2022-11-17T09:39:42.074Z,11.01
2022-11-17T09:42:13.743Z,11.09
2022-11-17T09:44:45.880Z,11.20
2022-11-17T09:47:32.742Z,11.13
2022-11-17T09:50:04.336Z,11.13
2022-11-17T09:52:37.069Z,11.00
2022-11-17T09:55:16.815Z,11.07
2022-11-17T09:57:48.387Z,11.10
2022-11-17T10:00:18.650Z,11.24
2022-11-17T10:02:47.839Z,11.19
2022-11-17T10:05:16.408Z,11.24
2022-11-17T10:07:48.444Z,11.43
2022-11-17T10:10:20.201Z,11.40
2022-11-17T10:12:51.646Z,11.33
2022-11-17T10:15:28.135Z,11.19
2022-11-17T10:17:56.785Z,11.18
2022-11-17T10:20:23.929Z,11.39
2022-11-17T10:22:53.791Z,11.33
2022-11-17T10:25:36.752Z,11.36
2022-11-17T10:28:04.673Z,11.44
2022-11-17T10:30:31.758Z,11.49
2022-11-17T10:33:01.885Z,11.62
2022-11-17T10:35:30.722Z,11.56
2022-11-17T10:37:59.944Z,11.64
2022-11-17T10:40:28.414Z,11.62
2022-11-17T10:43:03.156Z,11.60
2022-11-17T10:45:32.625Z,11.77
2022-11-17T10:48:20.393Z,11.58
2022-11-17T10:50:53.003Z,11.45
2022-11-17T10:55:56.230Z,11.37
2022-11-17T10:58:26.029Z,11.50
2022-11-17T11:00:55.927Z,11.54
2022-11-17T11:03:26.553Z,11.41
2022-11-17T11:06:06.156Z,11.57
2022-11-17T11:08:40.278Z,11.57
2022-11-17T11:11:16.015Z,11.62
2022-11-17T11:13:49.768Z,11.76
2022-11-17T11:16:16.630Z,11.80
2022-11-17T11:18:46.621Z,11.79
2022-11-17T11:21:24.330Z,11.97
2022-11-17T11:23:57.647Z,12.11
2022-11-17T11:26:44.530Z,12.24
2022-11-17T11:29:22.576Z,12.34
2022-11-17T11:32:04.390Z,12.43
2022-11-17T11:34:57.139Z,12.46
2022-11-17T11:37:29.968Z,12.21
2022-11-17T11:48:41.927Z,12.32
2022-11-17T12:12:38.893Z,12.89
2022-11-17T12:18:12.814Z,12.94
2022-11-17T12:21:05.996Z,13.01
2022-11-17T12:23:54.475Z,12.92
2022-11-17T12:26:32.792Z,12.87
2022-11-17T12:29:45.020Z,13.09
2022-11-17T12:32:51.188Z,13.06
2022-11-17T12:35:28.994Z,12.94
2022-11-17T12:41:19.712Z,12.91
2022-11-17T12:46:49.901Z,12.85
2022-11-17T12:49:30.467Z,12.75
2022-11-17T12:52:02.774Z,12.85
2022-11-17T12:54:38.762Z,13.02
2022-11-17T12:57:09.158Z,13.04
2022-11-17T13:00:02.990Z,13.07
2022-11-17T13:02:46.196Z,13.03
2022-11-17T13:05:18.372Z,13.26
2022-11-17T13:07:45.299Z,13.36
2022-11-17T13:10:25.068Z,13.46
2022-11-17T13:13:09.298Z,13.40
2022-11-17T13:15:36.903Z,13.35
2022-11-17T13:18:11.722Z,13.29
2022-11-17T13:40:43.426Z,13.36
2022-11-17T13:43:12.994Z,13.46
2022-11-17T13:45:40.680Z,13.48
2022-11-17T13:48:27.498Z,13.37
2022-11-17T13:50:54.422Z,13.20
2022-11-17T13:56:30.689Z,12.99
2022-11-17T13:58:59.540Z,13.09
2022-11-17T14:01:40.843Z,12.90
2022-11-17T14:04:19.597Z,12.83
2022-11-17T14:09:44.874Z,12.49
2022-11-17T14:12:26.846Z,12.50
2022-11-17T14:17:53.125Z,12.54
2022-11-17T14:20:31.224Z,12.31
2022-11-17T14:23:02.289Z,12.28
2022-11-17T14:25:29.231Z,12.39
2022-11-17T14:27:56.431Z,12.48
2022-11-17T14:30:23.421Z,12.44
2022-11-17T14:32:51.531Z,12.40
2022-11-17T14:37:50.248Z,12.35
2022-11-17T14:49:31.752Z,12.80
2022-11-17T14:52:00.413Z,12.77
2022-11-17T14:54:27.234Z,12.63
2022-11-17T14:56:54.272Z,12.67
2022-11-17T14:59:21.061Z,12.58
2022-11-17T15:01:47.988Z,12.52
2022-11-17T15:07:06.355Z,12.35
2022-11-17T15:09:33.430Z,12.42
2022-11-17T15:12:00.222Z,12.27
2022-11-17T15:14:27.192Z,12.30
2022-11-17T15:16:53.933Z,12.19
2022-11-17T15:19:20.761Z,12.32
2022-11-17T15:21:47.609Z,12.23
2022-11-17T15:24:15.934Z,12.25
2022-11-17T15:26:42.844Z,12.22
2022-11-17T15:29:12.774Z,12.05
2022-11-17T15:31:39.842Z,12.08
2022-11-17T15:34:06.825Z,12.03
2022-11-17T15:36:33.622Z,12.12
2022-11-17T15:39:00.433Z,11.94
2022-11-17T15:41:32.829Z,11.76
2022-11-17T15:44:00.103Z,11.70
2022-11-17T15:46:26.950Z,11.54
2022-11-17T15:48:55.594Z,11.53
2022-11-17T15:51:24.610Z,11.45
2022-11-17T15:53:52.791Z,11.36
2022-11-17T15:56:19.779Z,11.41
2022-11-17T15:58:49.563Z,11.37
2022-11-17T16:01:25.604Z,11.29
2022-11-17T16:03:56.390Z,11.18
2022-11-17T16:06:23.182Z,11.12
2022-11-17T16:08:50.157Z,11.06
2022-11-17T16:11:16.964Z,11.05
2022-11-17T16:13:43.826Z,11.04
2022-11-17T16:16:13.612Z,11.07
2022-11-17T16:18:41.050Z,11.02
2022-11-17T16:21:10.346Z,11.00
2022-11-17T16:23:38.851Z,11.04
2022-11-17T16:26:05.932Z,11.02
2022-11-17T16:28:32.964Z,11.02
2022-11-17T16:30:59.774Z,10.93
2022-11-17T16:33:27.917Z,10.97
2022-11-17T16:35:54.786Z,10.88
2022-11-17T16:38:21.600Z,10.89
2022-11-17T16:40:48.808Z,10.79
2022-11-17T16:43:15.610Z,10.73
2022-11-17T16:45:44.668Z,10.78
2022-11-17T16:48:12.461Z,10.74
2022-11-17T16:50:41.550Z,10.75
2022-11-17T16:53:08.671Z,10.83
2022-11-17T16:55:36.002Z,10.84
2022-11-17T16:58:03.508Z,10.81
2022-11-17T17:00:30.728Z,10.83
2022-11-17T17:02:57.915Z,10.90
2022-11-17T17:05:24.993Z,10.82
2022-11-17T17:07:53.312Z,10.76
2022-11-17T17:10:20.155Z,10.70
2022-11-17T17:12:46.997Z,10.64
2022-11-17T17:15:13.775Z,10.65
2022-11-17T17:17:40.542Z,10.63
2022-11-17T17:20:09.948Z,10.56
2022-11-17T17:22:36.752Z,10.49
2022-11-17T17:25:06.104Z,10.48
2022-11-17T17:27:32.964Z,10.51
2022-11-17T17:29:59.733Z,10.47
2022-11-17T17:32:26.602Z,10.34
2022-11-17T17:34:53.518Z,10.35
2022-11-17T17:37:20.310Z,10.37
2022-11-17T17:39:47.136Z,10.31
2022-11-17T17:42:15.359Z,10.30
2022-11-17T17:44:42.231Z,10.35
2022-11-17T17:47:09.111Z,10.32
2022-11-17T17:49:35.904Z,10.21
2022-11-17T17:52:02.780Z,10.21
2022-11-17T17:54:29.628Z,10.14
2022-11-17T17:56:57.782Z,10.14
2022-11-17T17:59:25.987Z,10.13
2022-11-17T18:01:53.357Z,10.13
2022-11-17T18:04:20.329Z,10.11
2022-11-17T18:06:48.436Z,10.10
2022-11-17T18:09:19.704Z,10.07
2022-11-17T18:11:50.527Z,10.01
2022-11-17T18:14:24.692Z,10.09
2022-11-17T18:16:53.381Z,10.06
2022-11-17T18:25:22.434Z,9.95
2022-11-17T18:27:49.273Z,9.88
2022-11-17T18:30:16.931Z,9.83
2022-11-17T18:35:16.946Z,9.76
2022-11-17T18:37:43.813Z,9.77
2022-11-17T18:42:58.591Z,9.78
2022-11-17T18:45:25.416Z,9.77
2022-11-17T18:47:52.520Z,9.78
2022-11-17T18:53:05.957Z,9.75
2022-11-17T18:55:32.762Z,9.76
2022-11-17T19:00:45.186Z,9.74
2022-11-17T19:06:11.419Z,9.72
2022-11-17T19:08:39.760Z,9.71
2022-11-17T19:19:10.888Z,9.65
2022-11-17T19:21:37.770Z,9.58
2022-11-17T19:24:08.508Z,9.61
2022-11-17T19:26:36.334Z,9.63
2022-11-17T19:29:08.771Z,9.59
2022-11-17T19:49:09.086Z,9.57
2022-11-17T19:55:01.827Z,9.47
2022-11-17T20:00:37.219Z,9.45
2022-11-17T20:29:59.769Z,9.50
2022-11-17T20:44:24.224Z,9.43
2022-11-17T20:46:55.901Z,9.36
2022-11-17T21:04:56.718Z,9.42
2022-11-17T21:13:26.834Z,9.50
2022-11-17T21:18:50.079Z,9.54
2022-11-17T21:21:16.882Z,9.48
2022-11-17T21:23:46.923Z,9.58
2022-11-17T21:26:17.377Z,9.60
2022-11-17T21:28:46.561Z,9.55
2022-11-17T21:31:15.305Z,9.60
2022-11-17T21:33:42.821Z,9.55
2022-11-17T21:36:15.680Z,9.59
2022-11-17T21:38:43.135Z,9.57
2022-11-17T21:41:13.061Z,9.55
2022-11-17T21:43:41.261Z,9.48
2022-11-17T21:46:09.718Z,9.51
2022-11-17T21:48:37.672Z,9.38
2022-11-17T21:51:05.024Z,9.38
2022-11-17T21:53:33.366Z,9.38
2022-11-17T21:56:01.444Z,9.38
2022-11-17T21:58:28.649Z,9.41
2022-11-17T22:00:55.603Z,9.40
2022-11-17T22:03:26.262Z,9.38
2022-11-17T22:05:56.778Z,9.36
2022-11-17T22:08:26.414Z,9.31
2022-11-17T22:10:54.691Z,9.29
2022-11-17T22:13:21.454Z,9.28
2022-11-17T22:16:19.098Z,9.19
2022-11-17T22:18:46.090Z,9.22
2022-11-17T22:21:13.674Z,9.20
2022-11-17T22:23:40.453Z,9.19
2022-11-17T22:26:10.920Z,9.06
2022-11-17T22:28:37.758Z,9.04
2022-11-17T22:31:05.460Z,9.11
2022-11-17T22:33:32.286Z,9.13
2022-11-17T22:36:00.298Z,9.13
2022-11-17T22:38:30.084Z,9.13
2022-11-17T22:40:59.802Z,9.22
2022-11-17T22:43:28.361Z,9.20
2022-11-17T22:45:55.136Z,9.17
2022-11-17T22:48:24.389Z,9.08
2022-11-17T22:50:51.224Z,9.16
2022-11-17T22:53:18.454Z,9.19
2022-11-17T22:55:46.265Z,9.20
2022-11-17T22:58:15.868Z,9.20
2022-11-17T23:00:44.156Z,9.26
2022-11-17T23:03:12.640Z,9.22
2022-11-17T23:05:39.779Z,9.24
2022-11-17T23:08:09.803Z,9.22
2022-11-17T23:10:44.940Z,9.28
2022-11-17T23:13:11.731Z,9.25
2022-11-17T23:15:38.848Z,9.25
2022-11-17T23:18:09.675Z,9.30
2022-11-17T23:20:36.975Z,9.26
2022-11-17T23:23:03.965Z,9.18
2022-11-17T23:25:30.727Z,9.25
2022-11-17T23:27:59.827Z,9.21
2022-11-17T23:30:26.635Z,9.15
2022-11-17T23:32:55.073Z,9.16
2022-11-17T23:35:23.399Z,9.26
2022-11-17T23:49:01.581Z,9.13
2022-11-17T23:51:30.171Z,9.07
2022-11-17T23:56:35.641Z,8.99
2022-11-17T23:59:03.132Z,8.97
